الصفحة الرئيسية
METAR-TAF:

METAR-TAF

مطار :

Labuan, ماليزيا

دائرة عرض: 05-18N, خط طول: 115-15E, ارتفاع: 30 متر

مراقبة الطقس الحالي

تاريخ ووقت الإصدار 46 دقيقة قبل الساعة 09:00UTC
ريح 6 عقدةمن اتجاهات متغيرة
درجة الحرارة 29°درجة مئوية
الرطوبة 79%
ضغط 1006 hPa
الرؤية 10 كم أو أكثر
غيوم قليلة على ارتفاع 1300 قدم

METAR: WBKL 220900Z VRB06KT 9999 FEW013 29/25 Q1006

زمن: 17:46 (09:46 UTC)

توقعات

تاريخ ووقت الإصدار 4ساعات و 46 دقيقة قبل الساعة 05:00UTC
التوقعات صالحة من22 الساعة 06 UTC إلى 23 الساعة 06 UTC
ريح 7 عقدة من الجنوب
الرؤية 10 كم أو أكثر
غيوم قليلة على ارتفاع 1500 قدم
مؤقت
من 22 الساعة 10 UTC إلى 22 الساعة 15 UTC
ريح 6 عقدة من الغرب تتزايد حتى 18 عقدة
الرؤية: 4000 متر
غيوم متفرقة على ارتفاع 1000 قدم
غيوم قليلة على ارتفاع 1400 قدم, مزنة ركامية.
غيوم متفرقة على ارتفاع 3500 قدم
عاصفة رعدية, مطر

TAF: WBKL 220500Z 2206/2306 17007KT 9999 FEW015 TEMPO 2210/2215 28006G18KT 4000 TSRA SCT010 FEW014CB SCT035

أرصاد الطقس والتوقعات من أكثر من 4000 مطار (تقارير الطقس للمطار METAR والتنبؤ بالطقس بالمطارTAF).

المحطات المتاحة هي النقط الصفراء والحمراء على الخريطة.

حرك المؤشر فوق النقطة لمعرفة اسم المحطة.

ثم انقر لمعرفة أرصاد وتوقعات الطقس.

لتغيير الخارطة: اضغط على الأزرار الخضراء مع رمز الصليب الأسود للتكبير. على الزر الأخضر مع شرطة للتصغير، أو على الأسهم الخضراء للخرائط المجاورة.


METAR-TAF: